< < Back
Terminal Aerodrome Forecast


Current Version              Previous Versions:   1  2  3  4  5  6  7  8  9  

Terminal Aerodrome Forecast

774
FTUS42 KILM 250533
TAFFLO
TAF
KFLO 250533Z 2506/2606 14008KT P6SM SCT040
      TEMPO 2509/2511 VRB03KT 4SM BR=

Latest METAR

058
SAUS70 KWBC 250500 RRD
MTRFLO
METAR KFLO 250453Z AUTO 00000KT 10SM CLR 17/14 A3033 RMK AO2 SLP267
T01670139 402940139


USA.gov is the U.S. government's official web portal to all federal, state and local government web resources and services.